createdAt,value
2018-03-19T00:01:17.213Z,39.70
2018-03-19T00:03:44.716Z,39.90
2018-03-19T00:06:12.152Z,40.20
2018-03-19T00:08:39.585Z,40.50
2018-03-19T00:11:07.492Z,39.80
2018-03-19T00:13:34.960Z,39.70
2018-03-19T00:16:02.405Z,39.80
2018-03-19T00:18:29.839Z,39.30
2018-03-19T00:20:57.331Z,40.00
2018-03-19T00:23:25.196Z,40.90
2018-03-19T00:25:52.625Z,39.80
2018-03-19T00:28:20.818Z,39.90
2018-03-19T00:30:48.251Z,40.00
2018-03-19T00:33:15.727Z,39.30
2018-03-19T00:35:43.167Z,39.90
2018-03-19T00:38:10.748Z,39.70
2018-03-19T00:40:38.188Z,39.70
2018-03-19T00:43:05.630Z,39.90
2018-03-19T00:45:33.067Z,39.70
2018-03-19T00:48:01.290Z,39.90
2018-03-19T00:50:28.736Z,39.90
2018-03-19T00:52:56.179Z,40.20
2018-03-19T00:55:24.483Z,39.70
2018-03-19T00:57:51.956Z,39.60
2018-03-19T01:00:19.392Z,39.80
2018-03-19T01:02:46.839Z,40.20
2018-03-19T01:05:14.271Z,40.10
2018-03-19T01:07:41.766Z,40.20
2018-03-19T01:10:09.199Z,39.70
2018-03-19T01:12:36.677Z,40.40
2018-03-19T01:15:04.140Z,40.20
2018-03-19T01:17:31.600Z,40.80
2018-03-19T01:19:59.051Z,40.70
2018-03-19T01:22:26.492Z,40.30
2018-03-19T01:24:53.927Z,39.80
2018-03-19T01:27:21.422Z,39.70
2018-03-19T01:29:48.884Z,39.90
2018-03-19T01:32:16.473Z,39.90
2018-03-19T01:34:44.711Z,39.80
2018-03-19T01:37:12.156Z,39.80
2018-03-19T01:39:39.596Z,40.00
2018-03-19T01:42:07.041Z,40.50
2018-03-19T01:44:34.472Z,40.70
2018-03-19T01:47:02.696Z,40.70
2018-03-19T01:49:30.140Z,40.50
2018-03-19T01:51:57.631Z,40.90
2018-03-19T01:54:25.066Z,40.70
2018-03-19T01:56:52.535Z,41.20
2018-03-19T01:59:19.992Z,40.80
2018-03-19T02:01:47.433Z,40.90
2018-03-19T02:04:14.864Z,41.20
2018-03-19T02:06:43.080Z,41.00
2018-03-19T02:09:10.544Z,41.00
2018-03-19T02:11:37.972Z,41.10
2018-03-19T02:14:05.412Z,41.50
2018-03-19T02:16:33.622Z,41.00
2018-03-19T02:19:01.079Z,41.00
2018-03-19T02:21:28.524Z,41.00
2018-03-19T02:23:56.001Z,40.80
2018-03-19T02:26:23.451Z,40.90
2018-03-19T02:28:50.882Z,40.90
2018-03-19T02:31:18.369Z,40.70
2018-03-19T02:33:45.819Z,40.90
2018-03-19T02:36:14.100Z,40.60
2018-03-19T02:38:41.561Z,40.30
2018-03-19T02:41:09.001Z,40.60
2018-03-19T02:43:36.527Z,41.20
2018-03-19T02:46:03.915Z,40.60
2018-03-19T02:48:31.388Z,40.40
2018-03-19T02:50:58.836Z,40.80
2018-03-19T02:53:26.268Z,41.10
2018-03-19T02:55:53.737Z,40.40
2018-03-19T02:58:21.167Z,40.60
2018-03-19T03:00:49.388Z,40.30
2018-03-19T03:03:16.847Z,40.20
2018-03-19T03:05:44.289Z,40.10
2018-03-19T03:08:11.720Z,40.70
2018-03-19T03:10:39.147Z,40.40
2018-03-19T03:13:06.675Z,40.60
2018-03-19T03:15:34.131Z,40.40
2018-03-19T03:18:01.703Z,41.00
2018-03-19T03:20:29.135Z,40.90
2018-03-19T03:22:56.603Z,40.70
2018-03-19T03:25:24.060Z,40.60
2018-03-19T03:27:51.521Z,40.10
2018-03-19T03:30:19.704Z,40.20
2018-03-19T03:32:47.140Z,40.40
2018-03-19T03:35:14.602Z,40.40
2018-03-19T03:37:42.061Z,40.50
2018-03-19T03:40:09.645Z,40.60
2018-03-19T03:42:37.098Z,40.20
2018-03-19T03:45:04.540Z,40.50
2018-03-19T03:47:31.967Z,40.10
2018-03-19T03:49:59.416Z,40.00
2018-03-19T03:52:26.850Z,39.80
2018-03-19T03:54:55.100Z,40.30
2018-03-19T03:57:22.489Z,40.30
2018-03-19T03:59:50.686Z,39.90
2018-03-19T04:02:18.136Z,39.90
2018-03-19T04:04:45.576Z,40.40
2018-03-19T04:07:13.799Z,40.00
2018-03-19T04:09:41.251Z,40.00
2018-03-19T04:12:08.713Z,40.50
2018-03-19T04:14:36.152Z,40.20
2018-03-19T04:17:03.584Z,39.90
2018-03-19T04:19:31.079Z,40.10
2018-03-19T04:21:58.543Z,40.40
2018-03-19T04:24:25.999Z,40.80
2018-03-19T04:26:53.447Z,40.80
2018-03-19T04:29:20.916Z,40.50
2018-03-19T04:31:48.363Z,40.60
2018-03-19T04:34:15.796Z,41.10
2018-03-19T04:36:43.231Z,41.20
2018-03-19T04:39:11.587Z,41.10
2018-03-19T04:41:39.111Z,41.00
2018-03-19T04:44:06.578Z,41.50
2018-03-19T04:46:34.028Z,41.50
2018-03-19T04:49:01.489Z,41.60
2018-03-19T04:51:28.944Z,41.50
2018-03-19T04:53:56.381Z,41.40
2018-03-19T04:56:23.832Z,41.30
2018-03-19T04:58:51.264Z,41.10
2018-03-19T05:01:19.488Z,40.80
2018-03-19T05:03:47.047Z,40.80
2018-03-19T05:06:14.508Z,40.90
2018-03-19T05:08:41.939Z,40.80
2018-03-19T05:11:09.413Z,40.50
2018-03-19T05:13:36.884Z,40.30
2018-03-19T05:16:04.342Z,41.20
2018-03-19T05:18:31.892Z,40.90
2018-03-19T05:20:59.350Z,40.70
2018-03-19T05:23:26.788Z,40.30
2018-03-19T05:25:54.212Z,40.20
2018-03-19T05:28:22.415Z,39.80
2018-03-19T05:30:49.895Z,39.80
2018-03-19T05:33:17.350Z,39.30
2018-03-19T05:35:44.811Z,39.90
2018-03-19T05:38:12.265Z,39.70
2018-03-19T05:40:39.729Z,39.20
2018-03-19T05:43:07.294Z,39.30
2018-03-19T05:45:34.852Z,39.00
2018-03-19T05:48:02.289Z,39.20
2018-03-19T05:50:30.138Z,39.10
2018-03-19T05:52:57.576Z,39.30
2018-03-19T05:55:25.008Z,39.60
2018-03-19T05:57:52.539Z,39.20
2018-03-19T06:00:19.982Z,38.50
2018-03-19T06:02:47.444Z,39.30
2018-03-19T06:05:14.878Z,39.60
2018-03-19T06:07:42.567Z,39.30
2018-03-19T06:10:10.026Z,39.10
2018-03-19T06:12:37.889Z,38.60
2018-03-19T06:15:05.317Z,39.40
2018-03-19T06:17:32.839Z,38.90
2018-03-19T06:20:00.260Z,39.60
2018-03-19T06:22:27.723Z,39.00
2018-03-19T06:24:55.178Z,38.70
2018-03-19T06:27:22.585Z,38.60
2018-03-19T06:29:50.795Z,38.30
2018-03-19T06:32:18.231Z,38.30
2018-03-19T06:34:46.383Z,38.50
2018-03-19T06:37:14.580Z,38.70
2018-03-19T06:39:42.022Z,38.70
2018-03-19T06:42:10.220Z,38.90
2018-03-19T06:44:37.711Z,38.90
2018-03-19T06:47:05.154Z,38.90
2018-03-19T06:49:32.612Z,38.40
2018-03-19T06:52:00.058Z,38.40
2018-03-19T06:54:27.500Z,38.20
2018-03-19T06:56:54.940Z,37.80
2018-03-19T06:59:23.129Z,38.00
2018-03-19T07:01:50.563Z,38.00
2018-03-19T07:04:18.767Z,37.80
2018-03-19T07:06:46.191Z,37.80
2018-03-19T07:09:14.399Z,38.30
2018-03-19T07:11:41.876Z,38.30
2018-03-19T07:14:09.305Z,38.40
2018-03-19T07:16:36.748Z,37.60
2018-03-19T07:19:04.248Z,37.80
2018-03-19T07:21:31.695Z,38.00
2018-03-19T07:23:59.134Z,37.80
2018-03-19T07:26:26.572Z,37.60
2018-03-19T07:28:54.073Z,37.70
2018-03-19T07:31:21.503Z,38.00
2018-03-19T07:33:48.955Z,37.60
2018-03-19T07:36:16.451Z,38.20
2018-03-19T07:38:43.883Z,37.90
2018-03-19T07:41:11.312Z,38.20
2018-03-19T07:43:38.752Z,37.80
2018-03-19T07:46:06.957Z,37.80
2018-03-19T07:48:34.471Z,37.80
2018-03-19T07:51:01.905Z,38.20
2018-03-19T07:53:29.307Z,38.20
2018-03-19T07:55:57.513Z,38.30
2018-03-19T07:58:24.986Z,38.30
2018-03-19T08:00:52.440Z,38.20
2018-03-19T08:03:19.908Z,38.20
2018-03-19T08:05:47.374Z,38.20
2018-03-19T08:08:14.766Z,38.20
2018-03-19T08:10:42.976Z,38.30
2018-03-19T08:13:10.448Z,38.30
2018-03-19T08:15:37.917Z,38.00
2018-03-19T08:18:05.360Z,38.00
2018-03-19T08:20:32.935Z,37.80
2018-03-19T08:23:01.170Z,38.80
2018-03-19T08:25:28.600Z,38.20
2018-03-19T08:27:56.803Z,38.10
2018-03-19T08:30:24.279Z,38.10
2018-03-19T08:32:51.725Z,38.00
2018-03-19T08:35:19.204Z,37.90
2018-03-19T08:37:46.760Z,38.20
2018-03-19T08:40:14.629Z,37.90
2018-03-19T08:42:42.075Z,37.80
2018-03-19T08:45:09.511Z,38.40
2018-03-19T08:47:36.966Z,37.50
2018-03-19T08:50:04.452Z,37.80
2018-03-19T08:52:31.887Z,38.00
2018-03-19T08:54:59.323Z,38.00
2018-03-19T08:57:26.820Z,37.90
2018-03-19T08:59:54.268Z,37.90
2018-03-19T09:02:21.698Z,37.40
2018-03-19T09:04:49.805Z,37.50
2018-03-19T09:07:17.302Z,37.50
2018-03-19T09:09:44.716Z,37.70
2018-03-19T09:12:12.162Z,37.80
2018-03-19T09:14:39.601Z,38.00
2018-03-19T09:17:07.092Z,37.80
2018-03-19T09:19:34.812Z,37.70
2018-03-19T09:22:02.252Z,38.00
2018-03-19T09:24:30.495Z,38.00
2018-03-19T09:26:57.947Z,38.00
2018-03-19T09:29:25.377Z,38.20
2018-03-19T09:31:52.816Z,38.00
2018-03-19T09:34:20.261Z,38.30
2018-03-19T09:36:48.468Z,37.90
2018-03-19T09:39:16.145Z,37.90
2018-03-19T09:41:43.581Z,37.60
2018-03-19T09:44:11.060Z,37.50
2018-03-19T09:46:38.500Z,37.80
2018-03-19T09:49:06.164Z,38.30
2018-03-19T09:51:34.352Z,38.50
2018-03-19T09:54:01.811Z,38.20
2018-03-19T09:56:29.264Z,37.70
2018-03-19T09:58:56.700Z,38.30
2018-03-19T10:01:24.148Z,38.20
2018-03-19T10:03:51.579Z,38.00
2018-03-19T10:06:19.808Z,38.40
2018-03-19T10:08:47.459Z,38.50
2018-03-19T10:11:14.896Z,37.80
2018-03-19T10:13:42.320Z,38.50
2018-03-19T10:16:09.844Z,38.40
2018-03-19T10:18:37.277Z,38.20
2018-03-19T10:21:04.708Z,37.50
2018-03-19T10:23:32.926Z,37.70
2018-03-19T10:26:00.352Z,37.60
2018-03-19T10:28:27.788Z,37.60
2018-03-19T10:30:55.993Z,37.60
2018-03-19T10:33:23.486Z,37.50
2018-03-19T10:35:50.911Z,38.30
2018-03-19T10:38:18.348Z,38.90
2018-03-19T10:40:45.848Z,38.80
2018-03-19T10:43:13.284Z,37.90
2018-03-19T10:45:40.758Z,37.70
2018-03-19T10:48:08.221Z,38.30
2018-03-19T10:50:35.652Z,39.00
2018-03-19T10:53:03.083Z,38.50
2018-03-19T10:55:31.722Z,38.40
2018-03-19T10:57:59.272Z,38.40
2018-03-19T11:00:26.728Z,38.50
2018-03-19T11:02:54.160Z,37.90
2018-03-19T11:05:27.392Z,38.10
2018-03-19T11:08:00.608Z,38.30
2018-03-19T11:10:28.844Z,38.80
2018-03-19T11:12:56.284Z,38.10
2018-03-19T11:15:23.728Z,38.00
2018-03-19T11:17:51.216Z,38.20
2018-03-19T11:20:18.651Z,39.10
2018-03-19T11:22:46.087Z,38.40
2018-03-19T11:25:14.308Z,39.10
2018-03-19T11:27:41.740Z,39.10
2018-03-19T11:30:09.173Z,39.00
2018-03-19T11:32:36.676Z,38.10
2018-03-19T11:35:04.128Z,38.40
2018-03-19T11:37:31.565Z,38.30
2018-03-19T11:39:59.008Z,37.80
2018-03-19T11:42:26.436Z,38.40
2018-03-19T11:44:53.957Z,38.40
2018-03-19T11:47:21.452Z,38.40
2018-03-19T11:49:48.872Z,38.00
2018-03-19T11:52:16.295Z,38.50
2018-03-19T11:54:43.788Z,37.50
2018-03-19T11:57:11.232Z,38.40
2018-03-19T11:59:38.659Z,38.00
2018-03-19T12:02:06.160Z,37.60
2018-03-19T12:04:33.587Z,37.70
2018-03-19T12:07:01.020Z,37.80
2018-03-19T12:09:29.224Z,38.20
2018-03-19T12:11:56.647Z,38.20
2018-03-19T12:14:24.890Z,37.90
2018-03-19T12:16:52.332Z,37.80
2018-03-19T12:19:19.801Z,37.30
2018-03-19T12:21:47.244Z,38.30
2018-03-19T12:24:14.704Z,37.90
2018-03-19T12:26:42.144Z,37.90
2018-03-19T12:29:09.823Z,37.40
2018-03-19T12:31:37.255Z,37.40
2018-03-19T12:34:04.683Z,37.00
2018-03-19T12:36:32.886Z,36.80
2018-03-19T12:39:00.316Z,36.80
2018-03-19T12:41:28.540Z,36.30
2018-03-19T12:43:55.968Z,36.20
2018-03-19T12:46:23.464Z,36.30
2018-03-19T12:48:50.892Z,36.50
2018-03-19T12:51:18.332Z,36.30
2018-03-19T12:53:45.760Z,36.60
2018-03-19T12:56:13.955Z,35.80
2018-03-19T12:58:41.400Z,35.80
2018-03-19T13:01:09.633Z,35.60
2018-03-19T13:03:37.085Z,35.60
2018-03-19T13:06:04.541Z,35.60
2018-03-19T13:08:31.995Z,35.40
2018-03-19T13:10:59.456Z,36.60
2018-03-19T13:13:26.911Z,35.70
2018-03-19T13:15:54.351Z,35.00
2018-03-19T13:18:21.828Z,34.80
2018-03-19T13:20:49.283Z,35.20
2018-03-19T13:23:16.740Z,34.40
2018-03-19T13:25:44.175Z,34.50
2018-03-19T13:28:11.651Z,34.60
2018-03-19T13:30:39.095Z,34.90
2018-03-19T13:33:06.553Z,35.10
2018-03-19T13:35:33.972Z,35.60
2018-03-19T13:38:02.172Z,34.50
2018-03-19T13:40:29.657Z,34.40
2018-03-19T13:42:57.089Z,34.60
2018-03-19T13:45:24.524Z,34.30
2018-03-19T13:47:52.028Z,34.10
2018-03-19T13:50:19.463Z,34.20
2018-03-19T13:52:46.939Z,33.70
2018-03-19T13:55:14.372Z,33.90
2018-03-19T13:57:41.816Z,34.50
2018-03-19T14:00:09.343Z,34.40
2018-03-19T14:02:36.867Z,34.40
2018-03-19T14:05:04.333Z,34.30
2018-03-19T14:07:31.788Z,34.40
2018-03-19T14:09:59.443Z,34.60
2018-03-19T14:12:26.899Z,34.40
2018-03-19T14:14:54.443Z,34.40
2018-03-19T14:17:21.920Z,34.60
2018-03-19T14:19:49.355Z,34.50
2018-03-19T14:22:16.796Z,34.00
2018-03-19T14:24:44.227Z,34.40
2018-03-19T14:27:11.769Z,33.80
2018-03-19T14:29:39.204Z,34.10
2018-03-19T14:32:06.696Z,34.20
2018-03-19T14:34:34.320Z,34.50
2018-03-19T14:37:01.897Z,35.40
2018-03-19T14:39:29.385Z,34.60
2018-03-19T14:41:56.775Z,34.60
2018-03-19T14:44:24.262Z,34.50
2018-03-19T14:46:51.708Z,34.40
2018-03-19T14:49:19.168Z,34.80
2018-03-19T14:51:46.621Z,35.30
2018-03-19T14:54:14.068Z,34.80
2018-03-19T14:56:41.620Z,34.80
2018-03-19T14:59:09.091Z,34.10
2018-03-19T15:01:36.652Z,35.10
2018-03-19T15:04:04.080Z,35.10
2018-03-19T15:06:31.509Z,34.90
2018-03-19T15:08:59.712Z,35.10
2018-03-19T15:11:27.199Z,35.00
2018-03-19T15:13:54.663Z,34.70
2018-03-19T15:16:22.089Z,34.80
2018-03-19T15:18:49.567Z,34.60
2018-03-19T15:21:17.023Z,34.80
2018-03-19T15:23:44.486Z,34.50
2018-03-19T15:26:11.917Z,34.40
2018-03-19T15:28:39.395Z,34.40
2018-03-19T15:31:06.835Z,34.20
2018-03-19T15:33:34.309Z,34.20
2018-03-19T15:36:01.740Z,34.60
2018-03-19T15:38:29.224Z,33.90
2018-03-19T15:40:56.692Z,34.20
2018-03-19T15:43:24.152Z,34.50
2018-03-19T15:45:51.664Z,34.70
2018-03-19T15:48:19.152Z,35.00
2018-03-19T15:50:46.612Z,35.90
2018-03-19T15:53:14.179Z,35.40
2018-03-19T15:55:41.613Z,35.00
2018-03-19T15:58:09.068Z,35.00
2018-03-19T16:00:36.549Z,35.80
2018-03-19T16:03:03.999Z,35.20
2018-03-19T16:05:31.458Z,34.90
2018-03-19T16:07:58.889Z,35.20
2018-03-19T16:10:26.376Z,35.30
2018-03-19T16:12:53.824Z,35.00
2018-03-19T16:15:21.260Z,35.60
2018-03-19T16:17:48.740Z,35.60
2018-03-19T16:20:16.196Z,35.50
2018-03-19T16:22:43.636Z,35.90
2018-03-19T16:25:11.080Z,36.00
2018-03-19T16:27:38.523Z,35.80
2018-03-19T16:30:05.958Z,35.40
2018-03-19T16:32:33.395Z,35.40
2018-03-19T16:35:00.936Z,36.00
2018-03-19T16:37:28.368Z,35.50
2018-03-19T16:39:55.851Z,35.70
2018-03-19T16:42:23.366Z,35.80
2018-03-19T16:44:50.768Z,35.60
2018-03-19T16:47:18.228Z,36.40
2018-03-19T16:49:46.159Z,36.10
2018-03-19T16:52:13.596Z,35.80
2018-03-19T16:54:41.798Z,35.80
2018-03-19T16:57:10.096Z,35.80
2018-03-19T16:59:38.172Z,35.80
2018-03-19T17:02:05.604Z,36.10
2018-03-19T17:04:33.083Z,36.00
2018-03-19T17:07:01.071Z,36.50
2018-03-19T17:09:28.620Z,36.90
2018-03-19T17:11:56.047Z,36.70
2018-03-19T17:14:23.472Z,36.50
2018-03-19T17:16:51.680Z,36.80
2018-03-19T17:19:19.116Z,36.80
2018-03-19T17:21:46.616Z,36.80
2018-03-19T17:24:14.042Z,37.70
2018-03-19T17:26:41.700Z,37.60
2018-03-19T17:29:09.135Z,37.50
2018-03-19T17:31:37.364Z,37.80
2018-03-19T17:34:04.807Z,37.70
2018-03-19T17:36:32.232Z,38.10
2018-03-19T17:38:59.748Z,37.90
2018-03-19T17:41:27.195Z,38.00
2018-03-19T17:43:54.654Z,38.00
2018-03-19T17:46:22.092Z,37.90
2018-03-19T17:48:49.528Z,38.20
2018-03-19T17:51:17.483Z,37.60
2018-03-19T17:53:45.683Z,38.40
2018-03-19T17:56:13.112Z,38.20
2018-03-19T17:58:41.371Z,38.50
2018-03-19T18:01:08.768Z,38.50
2018-03-19T18:03:36.247Z,38.70
2018-03-19T18:06:03.716Z,39.30
2018-03-19T18:08:31.268Z,38.10
2018-03-19T18:10:59.055Z,37.80
2018-03-19T18:13:26.488Z,37.80
2018-03-19T18:15:53.932Z,38.40
2018-03-19T18:18:21.360Z,38.10
2018-03-19T18:20:48.860Z,37.80
2018-03-19T18:23:16.310Z,38.40
2018-03-19T18:25:43.736Z,38.50
2018-03-19T18:28:11.209Z,38.20
2018-03-19T18:30:38.633Z,37.80
2018-03-19T18:33:06.856Z,38.00
2018-03-19T18:35:34.290Z,38.00
2018-03-19T18:38:01.753Z,37.70
2018-03-19T18:40:29.210Z,37.70
2018-03-19T18:42:57.118Z,37.60
2018-03-19T18:45:24.584Z,37.90
2018-03-19T18:47:52.016Z,37.50
2018-03-19T18:50:19.459Z,38.20
2018-03-19T18:52:46.897Z,37.90
2018-03-19T18:55:14.388Z,37.40
2018-03-19T18:57:41.855Z,37.80
2018-03-19T19:00:09.320Z,38.00
2018-03-19T19:02:36.804Z,37.70
2018-03-19T19:05:05.008Z,38.20
2018-03-19T19:07:32.461Z,38.20
2018-03-19T19:09:59.895Z,37.70
2018-03-19T19:12:27.340Z,38.10
2018-03-19T19:14:55.578Z,37.80
2018-03-19T19:17:23.107Z,37.70
2018-03-19T19:19:50.584Z,37.90
2018-03-19T19:22:18.036Z,37.80
2018-03-19T19:24:45.463Z,37.90
2018-03-19T19:27:12.928Z,38.20
2018-03-19T19:29:40.420Z,37.80
2018-03-19T19:32:07.908Z,38.10
2018-03-19T19:34:35.359Z,38.60
2018-03-19T19:37:02.811Z,38.00
2018-03-19T19:39:30.285Z,37.90
2018-03-19T19:41:57.764Z,38.50
2018-03-19T19:44:25.977Z,38.00
2018-03-19T19:46:53.411Z,37.90
2018-03-19T19:49:20.862Z,37.90
2018-03-19T19:51:48.299Z,37.80
2018-03-19T19:54:16.550Z,38.50
2018-03-19T19:56:44.068Z,38.50
2018-03-19T19:59:11.499Z,38.40
2018-03-19T20:01:38.952Z,38.40
2018-03-19T20:04:06.430Z,38.20
2018-03-19T20:06:33.884Z,38.10
2018-03-19T20:09:01.318Z,38.70
2018-03-19T20:11:29.531Z,38.40
2018-03-19T20:13:56.970Z,38.40
2018-03-19T20:16:24.462Z,38.40
2018-03-19T20:18:51.912Z,38.30
2018-03-19T20:21:19.347Z,38.40
2018-03-19T20:23:46.787Z,38.80
2018-03-19T20:26:14.232Z,38.70
2018-03-19T20:28:42.443Z,39.10
2018-03-19T20:31:09.896Z,39.10
2018-03-19T20:33:37.338Z,39.40
2018-03-19T20:36:04.784Z,38.80
2018-03-19T20:38:32.990Z,39.30
2018-03-19T20:41:00.454Z,39.30
2018-03-19T20:43:27.891Z,38.40
2018-03-19T20:45:55.365Z,38.50
2018-03-19T20:48:22.800Z,38.40
2018-03-19T20:50:50.233Z,38.60
2018-03-19T20:53:18.504Z,38.50
2018-03-19T20:55:46.708Z,38.00
2018-03-19T20:58:14.174Z,38.00
2018-03-19T21:00:41.600Z,37.80
2018-03-19T21:03:09.036Z,37.60
2018-03-19T21:05:37.240Z,37.20
2018-03-19T21:08:04.694Z,37.10
2018-03-19T21:10:32.896Z,37.30
2018-03-19T21:13:00.419Z,37.30
2018-03-19T21:15:28.603Z,37.00
2018-03-19T21:17:56.043Z,36.90
2018-03-19T21:20:24.247Z,36.70
2018-03-19T21:22:51.783Z,36.70
2018-03-19T21:25:19.188Z,36.90
2018-03-19T21:27:47.486Z,37.20
2018-03-19T21:30:16.469Z,36.80
2018-03-19T21:32:43.959Z,36.70
2018-03-19T21:35:12.107Z,37.00
2018-03-19T21:37:39.561Z,37.20
2018-03-19T21:40:07.129Z,37.60
2018-03-19T21:42:34.673Z,37.90
2018-03-19T21:45:02.219Z,37.70
2018-03-19T21:47:29.672Z,37.80
2018-03-19T21:49:57.112Z,37.90
2018-03-19T21:52:25.336Z,37.70
2018-03-19T21:54:52.836Z,37.90
2018-03-19T21:57:20.272Z,37.60
2018-03-19T21:59:48.498Z,37.70
2018-03-19T22:02:15.947Z,37.60
2018-03-19T22:04:43.408Z,37.30
2018-03-19T22:07:10.884Z,37.50
2018-03-19T22:09:38.323Z,37.60
2018-03-19T22:12:05.764Z,37.60
2018-03-19T22:14:33.195Z,37.40
2018-03-19T22:17:00.697Z,37.40
2018-03-19T22:19:28.146Z,37.60
2018-03-19T22:21:55.581Z,37.10
2018-03-19T22:24:23.058Z,37.00
2018-03-19T22:26:50.494Z,37.30
2018-03-19T22:29:17.944Z,37.30
2018-03-19T22:31:45.435Z,36.80
2018-03-19T22:34:12.928Z,36.70
2018-03-19T22:36:40.351Z,37.10
2018-03-19T22:39:07.804Z,37.20
2018-03-19T22:41:35.236Z,37.10
2018-03-19T22:44:02.700Z,37.20
2018-03-19T22:46:30.136Z,36.90
2018-03-19T22:48:57.575Z,37.00
2018-03-19T22:51:25.788Z,36.90
2018-03-19T22:53:53.266Z,36.90
2018-03-19T22:56:20.719Z,36.70
2018-03-19T22:58:48.176Z,37.00
2018-03-19T23:01:15.624Z,36.50
2018-03-19T23:03:43.052Z,36.70
2018-03-19T23:06:10.556Z,36.70
2018-03-19T23:08:37.985Z,36.60
2018-03-19T23:11:05.415Z,37.20
2018-03-19T23:13:32.872Z,36.00
2018-03-19T23:16:00.377Z,36.00
2018-03-19T23:18:28.662Z,36.10
2018-03-19T23:20:56.216Z,36.00
2018-03-19T23:23:23.680Z,36.10
2018-03-19T23:25:51.111Z,35.90
2018-03-19T23:28:18.583Z,36.00
2018-03-19T23:30:46.024Z,35.90
2018-03-19T23:33:13.495Z,36.10
2018-03-19T23:35:40.952Z,36.60
2018-03-19T23:38:08.384Z,35.80
2018-03-19T23:40:35.829Z,36.30
2018-03-19T23:43:04.143Z,36.00
2018-03-19T23:45:31.592Z,35.80
2018-03-19T23:47:59.063Z,35.80
2018-03-19T23:50:26.500Z,35.80
2018-03-19T23:52:53.968Z,35.60
2018-03-19T23:55:21.403Z,35.40
2018-03-19T23:57:48.879Z,35.00
